メインページ
METAR-TAF:

METAR-TAF

空港 :

種子島空港

種子島, 日本

緯度: 30-33N, 経度: 130-57E, 海抜: 92m

現時点の気象観測

当レポートは2時間55分前の09:07(UTC)に作成
の風 10kt、最大20ktの突風を伴う
気温 18°C
湿度 100%
気圧 1013 hPa
視程: 2500m
高度600ftの雲はほとんどない
高度1000ftの雲は散在している
高度1500ftの千切れ雲あり
にわか雨, 靄

METAR: RJFG 200907Z 09010G20KT 2500 SHRA BR FEW006 SCT010 BKN015 18/18 Q1013 RMK 1ST006 4CU010 6CU015 A2992

時間: 21:02 (12:02 UTC)


TAF: 見つかりません

4,000以上の空港の気象観測と天気予報(METAR報とTAF報)

利用可能な観測所は地図上に黄色い丸と赤い丸で示す。

丸の上にカーソルを重ねると観測所名を参照できる。

次にクリックすると気象観測と天気予報を参照できる。

マップの切り替え:黒色「×」印の緑ボタンをクリックして拡大、「-」印の緑ボタンをクリックして縮小、緑色の三角印をクリックして隣りの地図に切り替え


METAR-TAF: